createdAt,value
2019-05-25T00:00:18.540Z,89.5
2019-05-25T00:01:20.459Z,88.8
2019-05-25T00:02:22.315Z,89.4
2019-05-25T00:03:24.185Z,89.9
2019-05-25T00:04:26.055Z,89.2
2019-05-25T00:05:28.164Z,90
2019-05-25T00:06:29.823Z,90.2
2019-05-25T00:07:31.828Z,89.9
2019-05-25T00:08:33.707Z,90
2019-05-25T00:09:35.298Z,90.1
2019-05-25T00:10:37.168Z,90.1
2019-05-25T00:11:38.773Z,90.1
2019-05-25T00:12:40.356Z,90.1
2019-05-25T00:13:41.990Z,90.3
2019-05-25T00:14:43.584Z,90.2
2019-05-25T00:15:45.454Z,90.3
2019-05-25T00:16:47.337Z,90.3
2019-05-25T00:17:49.237Z,90.4
2019-05-25T00:18:51.151Z,90.4
2019-05-25T00:19:53.023Z,90.3
2019-05-25T00:20:54.905Z,90.5
2019-05-25T00:21:56.776Z,90.5
2019-05-25T00:22:58.650Z,90.4
2019-05-25T00:24:12.990Z,90.5
2019-05-25T00:25:14.952Z,90.3
2019-05-25T00:26:16.823Z,90.7
2019-05-25T00:27:18.706Z,90.7
2019-05-25T00:28:20.590Z,90.5
2019-05-25T00:29:22.475Z,90.6
2019-05-25T00:30:24.411Z,90.7
2019-05-25T00:31:25.995Z,90.8
2019-05-25T00:32:27.855Z,90.7
2019-05-25T00:33:29.735Z,90.8
2019-05-25T00:34:31.614Z,91.1
2019-05-25T00:35:33.546Z,91
2019-05-25T00:36:35.428Z,91
2019-05-25T00:37:37.043Z,91.2
2019-05-25T00:38:38.610Z,91
2019-05-25T00:39:40.494Z,90.8
2019-05-25T00:40:42.368Z,91.1
2019-05-25T00:41:44.241Z,91.1
2019-05-25T00:42:45.847Z,91.5
2019-05-25T00:43:47.446Z,91.3
2019-05-25T00:44:49.325Z,91.3
2019-05-25T00:45:51.220Z,91.3
2019-05-25T00:46:53.114Z,91.3
2019-05-25T00:47:54.987Z,91.3
2019-05-25T00:48:56.862Z,91.4
2019-05-25T00:49:58.737Z,91.1
2019-05-25T00:51:00.341Z,91.4
2019-05-25T00:52:01.378Z,91.5
2019-05-25T00:53:02.935Z,91.6
2019-05-25T00:54:04.829Z,91.6
2019-05-25T00:55:06.419Z,91.8
2019-05-25T00:56:08.001Z,91.8
2019-05-25T00:57:09.873Z,91.7
2019-05-25T00:58:11.745Z,91.9
2019-05-25T00:59:13.618Z,92.1
2019-05-25T01:00:15.492Z,92
2019-05-25T01:01:17.369Z,91.9
2019-05-25T01:02:19.251Z,91.9
2019-05-25T01:03:21.125Z,92
2019-05-25T01:04:23.004Z,91.7
2019-05-25T01:05:24.882Z,91.9
2019-05-25T01:06:26.761Z,91.9
2019-05-25T01:07:28.345Z,91.9
2019-05-25T01:08:30.261Z,92
2019-05-25T01:09:32.134Z,92.1
2019-05-25T01:10:34.007Z,92.3
2019-05-25T01:11:35.602Z,92.2
2019-05-25T01:12:36.916Z,92.4
2019-05-25T01:13:37.680Z,92.4
2019-05-25T01:14:39.565Z,92.2
2019-05-25T01:15:41.430Z,92.2
2019-05-25T01:16:43.319Z,92.3
2019-05-25T01:17:44.910Z,92.4
2019-05-25T01:18:46.783Z,92.4
2019-05-25T01:19:48.657Z,92.5
2019-05-25T01:20:50.539Z,92.7
2019-05-25T01:21:52.413Z,92.8
2019-05-25T01:22:54.286Z,92.8
2019-05-25T01:23:55.888Z,92.9
2019-05-25T01:24:57.207Z,92.8
2019-05-25T01:25:59.078Z,93
2019-05-25T01:27:00.950Z,92.9
2019-05-25T01:28:02.554Z,93
2019-05-25T01:29:04.430Z,92.8
2019-05-25T01:30:06.023Z,93
2019-05-25T01:31:07.897Z,92.8
2019-05-25T01:32:09.798Z,93
2019-05-25T01:33:11.657Z,93
2019-05-25T01:34:13.277Z,92.8
2019-05-25T01:35:15.188Z,92.9
2019-05-25T01:36:17.063Z,93.1
2019-05-25T01:37:18.648Z,93
2019-05-25T01:38:20.527Z,92.9
2019-05-25T01:39:22.402Z,93.1
2019-05-25T01:40:24.276Z,93.1
2019-05-25T01:41:25.870Z,93.3
2019-05-25T01:42:27.745Z,93.2
2019-05-25T01:43:29.619Z,93.3
2019-05-25T01:44:31.494Z,93.3
2019-05-25T01:45:33.101Z,93.1
2019-05-25T01:46:34.416Z,93
2019-05-25T01:47:36.292Z,93.2
2019-05-25T01:48:38.211Z,93
2019-05-25T01:49:40.084Z,93
2019-05-25T01:50:41.968Z,93
2019-05-25T01:51:43.919Z,93.1
2019-05-25T01:52:45.791Z,93.2
2019-05-25T01:53:47.681Z,93.3
2019-05-25T01:55:00.572Z,93.1
2019-05-25T01:56:02.514Z,93.1
2019-05-25T01:57:04.392Z,93.3
2019-05-25T01:58:06.266Z,93.3
2019-05-25T01:59:08.153Z,93.3
2019-05-25T02:00:10.033Z,93.2
2019-05-25T02:01:11.905Z,93.3
2019-05-25T02:02:13.532Z,93.3
2019-05-25T02:03:15.409Z,93.2
2019-05-25T02:04:17.281Z,93.3
2019-05-25T02:05:19.157Z,93.1
2019-05-25T02:06:21.029Z,93
2019-05-25T02:07:22.916Z,93.3
2019-05-25T02:08:23.957Z,93.3
2019-05-25T02:09:25.832Z,93.4
2019-05-25T02:10:27.706Z,93.2
2019-05-25T02:11:29.583Z,93.4
2019-05-25T02:12:31.457Z,93.4
2019-05-25T02:13:33.056Z,93.5
2019-05-25T02:14:34.655Z,93.4
2019-05-25T02:15:36.527Z,93.4
2019-05-25T02:16:38.401Z,93.5
2019-05-25T02:17:40.317Z,93.6
2019-05-25T02:18:46.143Z,93.6
2019-05-25T02:19:48.016Z,93.6
2019-05-25T02:20:49.898Z,93.6
2019-05-25T02:21:51.806Z,93.8
2019-05-25T02:22:53.686Z,93.7
2019-05-25T02:23:55.559Z,93.7
2019-05-25T02:24:57.440Z,93.9
2019-05-25T02:25:59.037Z,93.9
2019-05-25T02:27:00.918Z,94.1
2019-05-25T02:28:02.787Z,94.1
2019-05-25T02:29:04.664Z,94
2019-05-25T02:30:06.557Z,94.3
2019-05-25T02:31:08.165Z,94.3
2019-05-25T02:32:10.066Z,94.3
2019-05-25T02:33:11.717Z,94.3
2019-05-25T02:34:13.039Z,94.2
2019-05-25T02:35:14.910Z,94.1
2019-05-25T02:36:16.780Z,94.1
2019-05-25T02:37:22.125Z,94.1
2019-05-25T02:38:24.000Z,94.2
2019-05-25T02:39:25.644Z,94
2019-05-25T02:40:27.519Z,94
2019-05-25T02:41:29.599Z,94
2019-05-25T02:42:31.475Z,94
2019-05-25T02:43:33.056Z,94.1
2019-05-25T02:44:34.930Z,94.3
2019-05-25T02:45:36.809Z,94.4
2019-05-25T02:46:38.683Z,94.2
2019-05-25T02:47:40.555Z,94.5
2019-05-25T02:48:42.432Z,94.4
2019-05-25T02:49:44.308Z,94.5
2019-05-25T02:50:46.178Z,94.4
2019-05-25T02:51:48.050Z,94.4
2019-05-25T02:52:49.925Z,94.4
2019-05-25T02:53:51.799Z,94.4
2019-05-25T02:54:53.396Z,94.4
2019-05-25T02:55:55.271Z,94.3
2019-05-25T02:56:57.143Z,94.5
2019-05-25T02:57:59.048Z,94.6
2019-05-25T02:59:00.929Z,94.6
2019-05-25T03:00:02.526Z,94.6
2019-05-25T03:01:04.394Z,94.6
2019-05-25T03:02:06.269Z,94.8
2019-05-25T03:03:08.158Z,94.7
2019-05-25T03:04:10.044Z,94.8
2019-05-25T03:05:11.925Z,95
2019-05-25T03:06:15.113Z,94.9
2019-05-25T03:07:16.843Z,95
2019-05-25T03:08:18.442Z,95
2019-05-25T03:09:20.318Z,95.1
2019-05-25T03:10:22.200Z,95.1
2019-05-25T03:11:24.074Z,95
2019-05-25T03:12:26.010Z,95
2019-05-25T03:13:27.873Z,94.9
2019-05-25T03:14:29.748Z,94.8
2019-05-25T03:15:31.622Z,94.7
2019-05-25T03:16:33.506Z,94.6
2019-05-25T03:17:35.113Z,94.6
2019-05-25T03:18:36.402Z,94.4
2019-05-25T03:19:38.034Z,94.4
2019-05-25T03:20:39.911Z,94.5
2019-05-25T03:21:41.784Z,94.4
2019-05-25T03:22:43.659Z,94.2
2019-05-25T03:23:45.535Z,94.2
2019-05-25T03:24:47.405Z,94.1
2019-05-25T03:25:50.761Z,94.1
2019-05-25T03:26:52.651Z,94.1
2019-05-25T03:27:54.532Z,94.3
2019-05-25T03:28:56.444Z,94.3
2019-05-25T03:29:58.319Z,94.3
2019-05-25T03:30:59.918Z,94.4
2019-05-25T03:32:01.513Z,94.5
2019-05-25T03:33:03.213Z,94.3
2019-05-25T03:34:04.806Z,94.1
2019-05-25T03:35:06.681Z,94
2019-05-25T03:36:08.555Z,94
2019-05-25T03:37:10.429Z,93.9
2019-05-25T03:38:12.320Z,93.9
2019-05-25T03:39:13.948Z,93.8
2019-05-25T03:40:15.865Z,94
2019-05-25T03:41:17.737Z,94.2
2019-05-25T03:42:19.612Z,94.2
2019-05-25T03:43:21.487Z,94
2019-05-25T03:44:23.372Z,94.1
2019-05-25T03:45:24.975Z,94.1
2019-05-25T03:46:26.842Z,94
2019-05-25T03:47:28.718Z,94.1
2019-05-25T03:48:30.594Z,94.1
2019-05-25T03:49:32.194Z,94.1
2019-05-25T03:50:34.078Z,94
2019-05-25T03:51:35.115Z,93.9
2019-05-25T03:52:36.993Z,93.7
2019-05-25T03:53:38.874Z,93.5
2019-05-25T03:54:40.752Z,93.6
2019-05-25T03:55:42.628Z,93.6
2019-05-25T03:56:44.226Z,93.5
2019-05-25T03:57:45.823Z,93.7
2019-05-25T03:58:47.693Z,93.6
2019-05-25T03:59:49.568Z,93.8
2019-05-25T04:00:51.470Z,94
2019-05-25T04:01:53.382Z,94
2019-05-25T04:02:55.264Z,93.8
2019-05-25T04:03:57.156Z,93.8
2019-05-25T04:04:59.025Z,93.9
2019-05-25T04:06:00.898Z,93.9
2019-05-25T04:07:02.775Z,94
2019-05-25T04:08:04.653Z,94.1
2019-05-25T04:09:06.523Z,94.2
2019-05-25T04:10:08.445Z,94.2
2019-05-25T04:11:10.318Z,94
2019-05-25T04:12:11.925Z,94
2019-05-25T04:13:13.241Z,93.9
2019-05-25T04:14:14.823Z,93.9
2019-05-25T04:15:16.694Z,94
2019-05-25T04:16:18.572Z,94.3
2019-05-25T04:17:20.449Z,94.3
2019-05-25T04:18:23.326Z,94.3
2019-05-25T04:19:25.257Z,94.1
2019-05-25T04:20:27.139Z,93.9
2019-05-25T04:21:29.010Z,93.7
2019-05-25T04:22:30.884Z,93.9
2019-05-25T04:23:32.483Z,93.6
2019-05-25T04:24:34.358Z,93.6
2019-05-25T04:25:36.232Z,93.6
2019-05-25T04:26:38.105Z,93.8
2019-05-25T04:27:39.979Z,93.8
2019-05-25T04:28:41.855Z,93.7
2019-05-25T04:29:43.730Z,93.6
2019-05-25T04:30:45.607Z,93.6
2019-05-25T04:31:47.479Z,93.6
2019-05-25T04:32:49.365Z,93.5
2019-05-25T04:33:51.235Z,93.5
2019-05-25T04:34:53.111Z,93.7
2019-05-25T04:35:55.013Z,93.8
2019-05-25T04:36:56.931Z,93.7
2019-05-25T04:37:58.814Z,93.5
2019-05-25T04:39:00.687Z,93.5
2019-05-25T04:40:02.012Z,93.7
2019-05-25T04:41:03.880Z,93.9
2019-05-25T04:42:05.759Z,94
2019-05-25T04:43:07.350Z,94.3
2019-05-25T04:44:09.223Z,93.6
2019-05-25T04:45:11.095Z,93.7
2019-05-25T04:46:12.416Z,93.9
2019-05-25T04:47:27.418Z,93.7
2019-05-25T04:48:29.300Z,93.6
2019-05-25T04:49:31.186Z,93.9
2019-05-25T04:50:33.060Z,93.6
2019-05-25T04:51:34.934Z,93.6
2019-05-25T04:52:40.298Z,93.8
2019-05-25T04:53:43.255Z,93.8
2019-05-25T04:54:45.128Z,93.7
2019-05-25T04:55:46.999Z,93.6
2019-05-25T04:56:48.633Z,93.6
2019-05-25T04:57:50.526Z,93.8
2019-05-25T04:58:52.461Z,93.9
2019-05-25T04:59:54.048Z,93.6
2019-05-25T05:00:55.922Z,93.9
2019-05-25T05:01:57.795Z,93.9
2019-05-25T05:02:59.665Z,93.6
2019-05-25T05:04:01.540Z,93.2
2019-05-25T05:05:03.426Z,93.3
2019-05-25T05:06:05.308Z,93.3
2019-05-25T05:07:06.903Z,93.4
2019-05-25T05:08:08.774Z,92.8
2019-05-25T05:09:10.714Z,92.8
2019-05-25T05:10:12.421Z,93.2
2019-05-25T05:11:14.298Z,93.5
2019-05-25T05:12:16.204Z,93.5
2019-05-25T05:13:18.080Z,93.5
2019-05-25T05:14:19.957Z,93.6
2019-05-25T05:15:21.832Z,93.5
2019-05-25T05:16:23.465Z,93.2
2019-05-25T05:17:25.342Z,92.9
2019-05-25T05:18:27.218Z,93.2
2019-05-25T05:19:29.094Z,93.1
2019-05-25T05:20:30.730Z,93.2
2019-05-25T05:21:32.355Z,93.3
2019-05-25T05:22:34.231Z,93.3
2019-05-25T05:23:36.111Z,93.6
2019-05-25T05:24:37.983Z,93.5
2019-05-25T05:25:39.854Z,93.4
2019-05-25T05:26:56.498Z,93.1
2019-05-25T05:27:58.424Z,93.2
2019-05-25T05:29:00.022Z,93.2
2019-05-25T05:30:01.611Z,93.2
2019-05-25T05:31:03.219Z,93.5
2019-05-25T05:32:05.130Z,93.3
2019-05-25T05:33:06.730Z,93
2019-05-25T05:34:08.610Z,93.2
2019-05-25T05:35:10.474Z,93.3
2019-05-25T05:36:12.359Z,93.3
2019-05-25T05:37:14.233Z,93.2
2019-05-25T05:38:16.111Z,92.8
2019-05-25T05:39:17.981Z,92.9
2019-05-25T05:40:19.855Z,93
2019-05-25T05:41:21.733Z,93
2019-05-25T05:42:23.355Z,92.8
2019-05-25T05:43:25.272Z,92.3
2019-05-25T05:44:27.144Z,92.2
2019-05-25T05:45:29.016Z,92.3
2019-05-25T05:46:30.892Z,92.3
2019-05-25T05:47:32.500Z,91.5
2019-05-25T05:48:34.371Z,91.7
2019-05-25T05:49:36.246Z,91.6
2019-05-25T05:50:38.120Z,91.3
2019-05-25T05:51:39.990Z,91.3
2019-05-25T05:52:41.865Z,91.4
2019-05-25T05:53:43.740Z,91.5
2019-05-25T05:54:45.337Z,91.6
2019-05-25T05:55:47.206Z,91.5
2019-05-25T05:56:49.079Z,91.7
2019-05-25T05:57:50.958Z,91.2
2019-05-25T05:58:52.834Z,90.4
2019-05-25T05:59:54.708Z,90.7
2019-05-25T06:00:56.584Z,91
2019-05-25T06:01:58.455Z,91.2
2019-05-25T06:03:00.051Z,91.4
2019-05-25T06:04:02.064Z,91.6
2019-05-25T06:05:04.222Z,91.6
2019-05-25T06:06:06.108Z,90.1
2019-05-25T06:07:07.702Z,90
2019-05-25T06:08:09.572Z,89.8
2019-05-25T06:09:11.170Z,88.4
2019-05-25T06:10:13.051Z,89
2019-05-25T06:11:14.923Z,90
2019-05-25T06:12:16.807Z,90.3
2019-05-25T06:13:18.667Z,89.6
2019-05-25T06:14:20.537Z,88.9
2019-05-25T06:15:22.144Z,89.1
2019-05-25T06:16:24.012Z,89
2019-05-25T06:17:25.892Z,89.5
2019-05-25T06:18:27.760Z,90.2
2019-05-25T06:19:29.630Z,90.1
2019-05-25T06:20:31.500Z,90.4
2019-05-25T06:21:33.372Z,90.8
2019-05-25T06:22:35.247Z,91
2019-05-25T06:23:37.124Z,91
2019-05-25T06:24:38.995Z,88.3
2019-05-25T06:25:40.586Z,88.3
2019-05-25T06:26:42.473Z,87.7
2019-05-25T06:27:44.109Z,88.1
2019-05-25T06:28:45.710Z,88.9
2019-05-25T06:29:47.583Z,89.2
2019-05-25T06:30:49.456Z,89
2019-05-25T06:31:51.401Z,88.3
2019-05-25T06:32:52.990Z,89
2019-05-25T06:33:54.594Z,88.8
2019-05-25T06:34:55.900Z,88.4
2019-05-25T06:35:57.772Z,88.3
2019-05-25T06:36:59.366Z,88.8
2019-05-25T06:38:01.472Z,89.6
2019-05-25T06:39:03.117Z,89.1
2019-05-25T06:40:04.994Z,88.2
2019-05-25T06:41:09.208Z,87.8
2019-05-25T06:42:10.839Z,86.8
2019-05-25T06:43:12.707Z,87.1
2019-05-25T06:44:14.578Z,88.3
2019-05-25T06:45:16.456Z,88.1
2019-05-25T06:46:18.322Z,89.4
2019-05-25T06:47:19.917Z,89.4
2019-05-25T06:48:21.511Z,88.5
2019-05-25T06:49:23.389Z,87.6
2019-05-25T06:50:25.277Z,88.3
2019-05-25T06:51:26.582Z,87.3
2019-05-25T06:52:28.451Z,86.5
2019-05-25T06:53:30.321Z,86.4
2019-05-25T06:54:32.190Z,86.8
2019-05-25T06:55:34.066Z,86.9
2019-05-25T06:56:35.937Z,86.5
2019-05-25T06:57:44.119Z,87.2
2019-05-25T06:58:45.968Z,86.4
2019-05-25T06:59:47.549Z,87.1
2019-05-25T07:00:49.432Z,88
2019-05-25T07:01:51.308Z,88.4
2019-05-25T07:02:53.183Z,88.7
2019-05-25T07:03:55.053Z,88.3
2019-05-25T07:04:56.647Z,86.8
2019-05-25T07:05:58.515Z,86.8
2019-05-25T07:07:00.386Z,87
2019-05-25T07:08:02.265Z,86.3
2019-05-25T07:09:03.858Z,86.6
2019-05-25T07:10:05.454Z,85.6
2019-05-25T07:11:07.326Z,86.3
2019-05-25T07:12:09.191Z,86.9
2019-05-25T07:13:11.062Z,86.7
2019-05-25T07:14:12.934Z,86.9
2019-05-25T07:15:14.811Z,86.2
